sensor_id;sensor_type;location;lat;lon;timestamp;pressure;altitude;pressure_sealevel;temperature;humidity
59419;BME280;45224;50.904;6.038;2023-09-18T00:00:44;98912.72;;;22.64;77.33
59419;BME280;45224;50.904;6.038;2023-09-18T00:02:14;98901.41;;;22.62;77.25
59419;BME280;45224;50.904;6.038;2023-09-18T00:03:45;98901.41;;;22.62;77.16
59419;BME280;45224;50.904;6.038;2023-09-18T00:05:15;98889.94;;;22.63;77.33
59419;BME280;45224;50.904;6.038;2023-09-18T00:06:46;98888.22;;;22.62;77.24
59419;BME280;45224;50.904;6.038;2023-09-18T00:08:17;98879.50;;;22.61;77.25
59419;BME280;45224;50.904;6.038;2023-09-18T00:09:48;98877.88;;;22.59;77.07
59419;BME280;45224;50.904;6.038;2023-09-18T00:11:19;98874.31;;;22.60;77.04
59419;BME280;45224;50.904;6.038;2023-09-18T00:12:49;98874.53;;;22.57;77.19
59419;BME280;45224;50.904;6.038;2023-09-18T00:14:20;98865.88;;;22.55;77.45
59419;BME280;45224;50.904;6.038;2023-09-18T00:15:54;98855.53;;;22.52;77.68
59419;BME280;45224;50.904;6.038;2023-09-18T00:17:25;98862.91;;;22.47;77.73
59419;BME280;45224;50.904;6.038;2023-09-18T00:18:55;98861.94;;;22.48;77.74
59419;BME280;45224;50.904;6.038;2023-09-18T00:20:26;98862.91;;;22.47;78.09
59419;BME280;45224;50.904;6.038;2023-09-18T00:21:57;98852.75;;;22.40;77.65
59419;BME280;45224;50.904;6.038;2023-09-18T00:23:31;98866.84;;;22.39;78.03
59419;BME280;45224;50.904;6.038;2023-09-18T00:25:01;98865.19;;;22.38;78.31
59419;BME280;45224;50.904;6.038;2023-09-18T00:26:32;98861.78;;;22.36;78.51
59419;BME280;45224;50.904;6.038;2023-09-18T00:28:04;98861.78;;;22.36;78.63
59419;BME280;45224;50.904;6.038;2023-09-18T00:29:34;98857.56;;;22.34;78.32
59419;BME280;45224;50.904;6.038;2023-09-18T00:31:05;98853.31;;;22.31;78.58
59419;BME280;45224;50.904;6.038;2023-09-18T00:32:36;98855.97;;;22.31;78.31
59419;BME280;45224;50.904;6.038;2023-09-18T00:34:06;98844.00;;;22.25;78.66
59419;BME280;45224;50.904;6.038;2023-09-18T00:35:37;98843.34;;;22.22;79.04
59419;BME280;45224;50.904;6.038;2023-09-18T00:37:07;98843.34;;;22.22;78.79
59419;BME280;45224;50.904;6.038;2023-09-18T00:38:39;98839.69;;;22.24;78.47
59419;BME280;45224;50.904;6.038;2023-09-18T00:40:10;98840.69;;;22.22;78.57
59419;BME280;45224;50.904;6.038;2023-09-18T00:41:41;98836.41;;;22.21;78.60
59419;BME280;45224;50.904;6.038;2023-09-18T00:43:12;98836.41;;;22.21;79.02
59419;BME280;45224;50.904;6.038;2023-09-18T00:44:43;98835.66;;;22.19;79.09
59419;BME280;45224;50.904;6.038;2023-09-18T00:46:14;98839.41;;;22.15;79.35
59419;BME280;45224;50.904;6.038;2023-09-18T00:47:45;98833.41;;;22.13;79.29
59419;BME280;45224;50.904;6.038;2023-09-18T00:49:16;98837.72;;;22.14;79.37
59419;BME280;45224;50.904;6.038;2023-09-18T00:50:48;98836.03;;;22.13;79.37
59419;BME280;45224;50.904;6.038;2023-09-18T00:52:20;98837.16;;;22.09;79.58
59419;BME280;45224;50.904;6.038;2023-09-18T00:53:51;98842.22;;;22.12;79.36
59419;BME280;45224;50.904;6.038;2023-09-18T00:55:22;98844.78;;;22.13;79.19
59419;BME280;45224;50.904;6.038;2023-09-18T00:56:53;98843.94;;;22.13;79.64
59419;BME280;45224;50.904;6.038;2023-09-18T00:58:26;98838.75;;;22.11;79.40
59419;BME280;45224;50.904;6.038;2023-09-18T00:59:57;98848.84;;;22.04;79.95
59419;BME280;45224;50.904;6.038;2023-09-18T01:01:28;98855.13;;;22.02;80.53
59419;BME280;45224;50.904;6.038;2023-09-18T01:03:01;98849.22;;;21.98;80.56
59419;BME280;45224;50.904;6.038;2023-09-18T01:04:33;98843.41;;;21.93;81.21
59419;BME280;45224;50.904;6.038;2023-09-18T01:06:04;98841.50;;;21.95;80.59
59419;BME280;45224;50.904;6.038;2023-09-18T01:07:34;98840.66;;;21.95;80.66
59419;BME280;45224;50.904;6.038;2023-09-18T01:09:05;98834.91;;;21.88;81.50
59419;BME280;45224;50.904;6.038;2023-09-18T01:11:31;98835.31;;;21.82;82.16
59419;BME280;45224;50.904;6.038;2023-09-18T01:13:16;98820.56;;;21.79;82.30
59419;BME280;45224;50.904;6.038;2023-09-18T01:16:06;98813.41;;;21.81;82.03
59419;BME280;45224;50.904;6.038;2023-09-18T01:17:16;98806.75;;;21.76;81.74
59419;BME280;45224;50.904;6.038;2023-09-18T01:18:50;98804.31;;;21.73;82.11
59419;BME280;45224;50.904;6.038;2023-09-18T01:20:20;98800.63;;;21.75;81.65
59419;BME280;45224;50.904;6.038;2023-09-18T01:21:51;98795.28;;;21.77;81.56
59419;BME280;45224;50.904;6.038;2023-09-18T01:23:21;98790.00;;;21.77;81.90
59419;BME280;45224;50.904;6.038;2023-09-18T01:24:53;98792.75;;;21.75;82.02
59419;BME280;45224;50.904;6.038;2023-09-18T01:26:23;98786.44;;;21.78;81.52
59419;BME280;45224;50.904;6.038;2023-09-18T01:27:53;98796.97;;;21.78;81.86
59419;BME280;45224;50.904;6.038;2023-09-18T01:29:24;98778.00;;;21.73;82.10
59419;BME280;45224;50.904;6.038;2023-09-18T01:30:54;98790.22;;;21.74;81.98
59419;BME280;45224;50.904;6.038;2023-09-18T01:32:28;98786.63;;;21.75;81.67
59419;BME280;45224;50.904;6.038;2023-09-18T01:34:00;98788.44;;;21.74;81.84
59419;BME280;45224;50.904;6.038;2023-09-18T01:35:33;98784.75;;;21.77;81.48
59419;BME280;45224;50.904;6.038;2023-09-18T01:37:05;98787.47;;;21.75;81.82
59419;BME280;45224;50.904;6.038;2023-09-18T01:38:36;98778.19;;;21.69;81.99
59419;BME280;45224;50.904;6.038;2023-09-18T01:40:07;98765.78;;;21.72;81.77
59419;BME280;45224;50.904;6.038;2023-09-18T01:41:38;98776.13;;;21.75;81.55
59419;BME280;45224;50.904;6.038;2023-09-18T01:43:08;98769.19;;;21.74;81.82
59419;BME280;45224;50.904;6.038;2023-09-18T01:44:39;98772.75;;;21.73;81.80
59419;BME280;45224;50.904;6.038;2023-09-18T01:46:10;98769.06;;;21.75;81.68
59419;BME280;45224;50.904;6.038;2023-09-18T01:47:41;98771.69;;;21.75;81.55
59419;BME280;45224;50.904;6.038;2023-09-18T01:49:11;98767.28;;;21.76;81.58
59419;BME280;45224;50.904;6.038;2023-09-18T01:50:42;98764.75;;;21.74;81.77
59419;BME280;45224;50.904;6.038;2023-09-18T01:52:13;98763.06;;;21.73;81.42
59419;BME280;45224;50.904;6.038;2023-09-18T01:53:43;98758.44;;;21.77;81.50
59419;BME280;45224;50.904;6.038;2023-09-18T01:55:14;98763.72;;;21.77;81.64
59419;BME280;45224;50.904;6.038;2023-09-18T01:56:44;98753.00;;;21.80;81.12
59419;BME280;45224;50.904;6.038;2023-09-18T01:58:15;98757.50;;;21.78;81.06
59419;BME280;45224;50.904;6.038;2023-09-18T01:59:45;98758.34;;;21.78;81.23
59419;BME280;45224;50.904;6.038;2023-09-18T02:01:16;98752.16;;;21.79;81.24
59419;BME280;45224;50.904;6.038;2023-09-18T02:02:46;98754.06;;;21.77;81.52
59419;BME280;45224;50.904;6.038;2023-09-18T02:04:17;98756.50;;;21.80;81.43
59419;BME280;45224;50.904;6.038;2023-09-18T02:05:49;98770.03;;;21.74;82.07
59419;BME280;45224;50.904;6.038;2023-09-18T02:07:19;98762.78;;;21.63;82.33
59419;BME280;45224;50.904;6.038;2023-09-18T02:08:50;98756.88;;;21.60;82.78
59419;BME280;45224;50.904;6.038;2023-09-18T02:10:20;98766.28;;;21.49;83.16
59419;BME280;45224;50.904;6.038;2023-09-18T02:11:51;98761.78;;;21.51;83.31
59419;BME280;45224;50.904;6.038;2023-09-18T02:13:22;98760.72;;;21.54;82.20
59419;BME280;45224;50.904;6.038;2023-09-18T02:14:52;98761.41;;;21.58;81.60
59419;BME280;45224;50.904;6.038;2023-09-18T02:16:22;98753.03;;;21.51;81.71
59419;BME280;45224;50.904;6.038;2023-09-18T02:17:54;98759.78;;;21.55;80.56
59419;BME280;45224;50.904;6.038;2023-09-18T02:19:24;98741.56;;;21.52;80.29
59419;BME280;45224;50.904;6.038;2023-09-18T02:20:56;98738.75;;;21.55;79.43
59419;BME280;45224;50.904;6.038;2023-09-18T02:22:27;98740.06;;;21.62;79.48
59419;BME280;45224;50.904;6.038;2023-09-18T02:23:57;98745.13;;;21.65;79.02
59419;BME280;45224;50.904;6.038;2023-09-18T02:25:28;98729.44;;;21.64;78.87
59419;BME280;45224;50.904;6.038;2023-09-18T02:26:59;98731.03;;;21.66;78.99
59419;BME280;45224;50.904;6.038;2023-09-18T02:28:30;98733.47;;;21.69;78.93
59419;BME280;45224;50.904;6.038;2023-09-18T02:30:02;98728.50;;;21.65;78.45
59419;BME280;45224;50.904;6.038;2023-09-18T02:31:33;98727.47;;;21.67;78.12
59419;BME280;45224;50.904;6.038;2023-09-18T02:33:03;98732.75;;;21.67;78.60
59419;BME280;45224;50.904;6.038;2023-09-18T02:34:34;98715.06;;;21.69;77.69
59419;BME280;45224;50.904;6.038;2023-09-18T02:36:05;98727.09;;;21.74;77.63
59419;BME280;45224;50.904;6.038;2023-09-18T02:37:35;98722.03;;;21.70;77.99
59419;BME280;45224;50.904;6.038;2023-09-18T02:39:06;98713.94;;;21.74;77.34
59419;BME280;45224;50.904;6.038;2023-09-18T02:40:36;98711.00;;;21.78;77.38
59419;BME280;45224;50.904;6.038;2023-09-18T02:42:07;98711.09;;;21.77;78.10
59419;BME280;45224;50.904;6.038;2023-09-18T02:43:38;98704.31;;;21.87;77.56
59419;BME280;45224;50.904;6.038;2023-09-18T02:45:08;98718.41;;;21.86;78.11
59419;BME280;45224;50.904;6.038;2023-09-18T02:46:41;98707.09;;;21.71;79.25
59419;BME280;45224;50.904;6.038;2023-09-18T02:48:12;98703.53;;;21.72;79.40
59419;BME280;45224;50.904;6.038;2023-09-18T02:49:43;98708.28;;;21.65;80.99
59419;BME280;45224;50.904;6.038;2023-09-18T02:51:13;98704.84;;;21.65;81.11
59419;BME280;45224;50.904;6.038;2023-09-18T02:52:44;98702.66;;;21.72;81.39
59419;BME280;45224;50.904;6.038;2023-09-18T02:54:14;98692.50;;;21.65;81.29
59419;BME280;45224;50.904;6.038;2023-09-18T02:55:47;98687.25;;;21.65;81.18
59419;BME280;45224;50.904;6.038;2023-09-18T02:57:17;98673.38;;;21.63;82.03
59419;BME280;45224;50.904;6.038;2023-09-18T02:58:49;98675.81;;;21.66;82.22
59419;BME280;45224;50.904;6.038;2023-09-18T03:00:19;98672.53;;;21.63;83.08
59419;BME280;45224;50.904;6.038;2023-09-18T03:01:51;98666.44;;;21.62;82.56
59419;BME280;45224;50.904;6.038;2023-09-18T03:03:23;98663.03;;;21.60;82.96
59419;BME280;45224;50.904;6.038;2023-09-18T03:04:55;98651.22;;;21.53;83.42
59419;BME280;45224;50.904;6.038;2023-09-18T03:06:25;98643.25;;;21.55;83.73
59419;BME280;45224;50.904;6.038;2023-09-18T03:07:56;98640.63;;;21.55;84.15
59419;BME280;45224;50.904;6.038;2023-09-18T03:09:26;98636.63;;;21.47;84.16
59419;BME280;45224;50.904;6.038;2023-09-18T03:10:57;98629.66;;;21.48;83.29
59419;BME280;45224;50.904;6.038;2023-09-18T03:12:28;98619.97;;;21.48;83.00
59419;BME280;45224;50.904;6.038;2023-09-18T03:13:59;98618.34;;;21.46;82.81
59419;BME280;45224;50.904;6.038;2023-09-18T03:15:29;98613.78;;;21.49;82.59
59419;BME280;45224;50.904;6.038;2023-09-18T03:17:01;98611.25;;;21.48;82.38
59419;BME280;45224;50.904;6.038;2023-09-18T03:18:31;98607.47;;;21.52;81.86
59419;BME280;45224;50.904;6.038;2023-09-18T03:20:02;98591.88;;;21.49;82.46
59419;BME280;45224;50.904;6.038;2023-09-18T03:21:33;98603.50;;;21.59;80.61
59419;BME280;45224;50.904;6.038;2023-09-18T03:23:05;98609.06;;;21.55;80.78
59419;BME280;45224;50.904;6.038;2023-09-18T03:24:36;98619.50;;;21.56;80.86
59419;BME280;45224;50.904;6.038;2023-09-18T03:26:06;98650.84;;;21.59;81.04
59419;BME280;45224;50.904;6.038;2023-09-18T03:27:37;98656.31;;;21.56;80.94
59419;BME280;45224;50.904;6.038;2023-09-18T03:29:08;98672.00;;;21.58;80.67
59419;BME280;45224;50.904;6.038;2023-09-18T03:30:39;98672.72;;;21.45;81.59
59419;BME280;45224;50.904;6.038;2023-09-18T03:32:09;98673.09;;;21.25;84.49
59419;BME280;45224;50.904;6.038;2023-09-18T03:33:42;98679.97;;;21.27;84.85
59419;BME280;45224;50.904;6.038;2023-09-18T03:35:13;98665.13;;;21.26;85.22
59419;BME280;45224;50.904;6.038;2023-09-18T03:36:50;98657.59;;;21.20;85.63
59419;BME280;45224;50.904;6.038;2023-09-18T03:38:21;98658.84;;;21.14;86.95
59419;BME280;45224;50.904;6.038;2023-09-18T03:39:52;98655.94;;;21.05;87.63
59419;BME280;45224;50.904;6.038;2023-09-18T03:41:22;98649.44;;;21.10;87.66
59419;BME280;45224;50.904;6.038;2023-09-18T03:42:53;98638.94;;;21.10;87.87
59419;BME280;45224;50.904;6.038;2023-09-18T03:44:24;98643.63;;;21.05;87.86
59419;BME280;45224;50.904;6.038;2023-09-18T03:46:03;98641.28;;;21.01;89.09
59419;BME280;45224;50.904;6.038;2023-09-18T03:47:41;98642.25;;;21.00;88.64
59419;BME280;45224;50.904;6.038;2023-09-18T03:49:11;98646.81;;;20.96;88.68
59419;BME280;45224;50.904;6.038;2023-09-18T03:50:43;98658.19;;;20.96;89.03
59419;BME280;45224;50.904;6.038;2023-09-18T03:52:13;98653.50;;;20.87;89.62
59419;BME280;45224;50.904;6.038;2023-09-18T03:53:44;98656.84;;;20.89;88.81
59419;BME280;45224;50.904;6.038;2023-09-18T03:55:14;98651.97;;;20.83;89.69
59419;BME280;45224;50.904;6.038;2023-09-18T03:56:45;98656.28;;;20.70;90.46
59419;BME280;45224;50.904;6.038;2023-09-18T03:58:16;98655.19;;;20.74;90.05
59419;BME280;45224;50.904;6.038;2023-09-18T03:59:47;98645.50;;;20.74;89.75
59419;BME280;45224;50.904;6.038;2023-09-18T04:01:17;98646.66;;;20.70;90.24
59419;BME280;45224;50.904;6.038;2023-09-18T04:02:47;98643.34;;;20.67;90.51
59419;BME280;45224;50.904;6.038;2023-09-18T04:04:18;98645.97;;;20.67;89.88
59419;BME280;45224;50.904;6.038;2023-09-18T04:05:49;98639.19;;;20.63;90.27
59419;BME280;45224;50.904;6.038;2023-09-18T04:07:19;98632.09;;;20.65;90.42
59419;BME280;45224;50.904;6.038;2023-09-18T04:08:50;98636.91;;;20.56;90.30
59419;BME280;45224;50.904;6.038;2023-09-18T04:10:21;98643.09;;;20.55;90.11
59419;BME280;45224;50.904;6.038;2023-09-18T04:11:53;98631.75;;;20.55;90.73
59419;BME280;45224;50.904;6.038;2023-09-18T04:13:25;98622.66;;;20.46;90.79
59419;BME280;45224;50.904;6.038;2023-09-18T04:14:57;98625.38;;;20.45;90.37
59419;BME280;45224;50.904;6.038;2023-09-18T04:16:28;98620.78;;;20.48;90.07
59419;BME280;45224;50.904;6.038;2023-09-18T04:17:58;98606.22;;;20.42;90.26
59419;BME280;45224;50.904;6.038;2023-09-18T04:19:29;98603.16;;;20.50;89.16
59419;BME280;45224;50.904;6.038;2023-09-18T04:21:00;98600.69;;;20.47;89.27
59419;BME280;45224;50.904;6.038;2023-09-18T04:22:31;98601.44;;;20.49;89.09
59419;BME280;45224;50.904;6.038;2023-09-18T04:24:01;98609.13;;;20.38;89.95
59419;BME280;45224;50.904;6.038;2023-09-18T04:25:32;98603.88;;;20.38;89.55
59419;BME280;45224;50.904;6.038;2023-09-18T04:27:03;98611.09;;;20.34;89.43
59419;BME280;45224;50.904;6.038;2023-09-18T04:28:33;98609.03;;;20.25;90.10
59419;BME280;45224;50.904;6.038;2023-09-18T04:30:04;98606.88;;;20.32;89.79
59419;BME280;45224;50.904;6.038;2023-09-18T04:31:35;98597.47;;;20.28;89.93
59419;BME280;45224;50.904;6.038;2023-09-18T04:33:05;98612.66;;;20.22;90.33
59419;BME280;45224;50.904;6.038;2023-09-18T04:34:36;98600.84;;;20.30;89.19
59419;BME280;45224;50.904;6.038;2023-09-18T04:36:07;98609.78;;;20.27;89.81
59419;BME280;45224;50.904;6.038;2023-09-18T04:37:38;98612.84;;;20.19;90.21
59419;BME280;45224;50.904;6.038;2023-09-18T04:39:09;98617.16;;;20.20;90.39
59419;BME280;45224;50.904;6.038;2023-09-18T04:40:40;98619.00;;;20.18;90.50
59419;BME280;45224;50.904;6.038;2023-09-18T04:42:11;98610.31;;;20.18;90.14
59419;BME280;45224;50.904;6.038;2023-09-18T04:43:41;98606.50;;;20.23;89.76
59419;BME280;45224;50.904;6.038;2023-09-18T04:45:13;98606.66;;;20.20;90.29
59419;BME280;45224;50.904;6.038;2023-09-18T04:46:44;98608.34;;;20.21;90.18
59419;BME280;45224;50.904;6.038;2023-09-18T04:48:16;98601.41;;;20.20;90.07
59419;BME280;45224;50.904;6.038;2023-09-18T04:49:46;98605.31;;;20.13;90.73
59419;BME280;45224;50.904;6.038;2023-09-18T04:51:20;98586.41;;;20.22;89.75
59419;BME280;45224;50.904;6.038;2023-09-18T04:52:50;98583.13;;;20.19;90.33
59419;BME280;45224;50.904;6.038;2023-09-18T04:54:22;98586.50;;;20.21;89.97
59419;BME280;45224;50.904;6.038;2023-09-18T04:55:53;98590.63;;;20.11;90.79
59419;BME280;45224;50.904;6.038;2023-09-18T04:57:24;98600.06;;;20.13;90.72
59419;BME280;45224;50.904;6.038;2023-09-18T04:58:55;98591.28;;;20.14;90.78
59419;BME280;45224;50.904;6.038;2023-09-18T05:00:26;98596.53;;;20.14;90.60
59419;BME280;45224;50.904;6.038;2023-09-18T05:01:59;98601.59;;;20.17;90.46
59419;BME280;45224;50.904;6.038;2023-09-18T05:03:30;98601.78;;;20.14;90.38
59419;BME280;45224;50.904;6.038;2023-09-18T05:05:00;98595.94;;;20.09;90.77
59419;BME280;45224;50.904;6.038;2023-09-18T05:06:31;98597.56;;;19.96;91.54
59419;BME280;45224;50.904;6.038;2023-09-18T05:08:03;98604.53;;;19.97;91.53
59419;BME280;45224;50.904;6.038;2023-09-18T05:09:35;98609.25;;;20.06;90.90
59419;BME280;45224;50.904;6.038;2023-09-18T05:11:05;98611.28;;;20.01;91.42
59419;BME280;45224;50.904;6.038;2023-09-18T05:12:38;98611.16;;;19.88;92.19
59419;BME280;45224;50.904;6.038;2023-09-18T05:14:09;98626.81;;;19.90;91.93
59419;BME280;45224;50.904;6.038;2023-09-18T05:15:39;98622.13;;;19.95;91.65
59419;BME280;45224;50.904;6.038;2023-09-18T05:17:13;98620.59;;;19.91;91.99
59419;BME280;45224;50.904;6.038;2023-09-18T05:18:44;98647.69;;;19.91;91.67
59419;BME280;45224;50.904;6.038;2023-09-18T05:20:16;98636.00;;;19.97;91.26
59419;BME280;45224;50.904;6.038;2023-09-18T05:21:46;98631.09;;;19.91;91.86
59419;BME280;45224;50.904;6.038;2023-09-18T05:23:18;98637.06;;;19.78;92.66
59419;BME280;45224;50.904;6.038;2023-09-18T05:24:49;98649.72;;;19.86;92.34
59419;BME280;45224;50.904;6.038;2023-09-18T05:26:19;98663.28;;;19.78;92.71
59419;BME280;45224;50.904;6.038;2023-09-18T05:27:51;98654.19;;;19.68;93.71
59419;BME280;45224;50.904;6.038;2023-09-18T05:29:26;98652.13;;;19.73;93.49
59419;BME280;45224;50.904;6.038;2023-09-18T05:30:56;98652.78;;;19.78;93.19
59419;BME280;45224;50.904;6.038;2023-09-18T05:32:27;98655.31;;;19.80;93.24
59419;BME280;45224;50.904;6.038;2023-09-18T05:33:57;98649.28;;;19.78;93.40
59419;BME280;45224;50.904;6.038;2023-09-18T05:35:29;98650.25;;;19.77;93.36
59419;BME280;45224;50.904;6.038;2023-09-18T05:36:59;98643.31;;;19.76;92.89
59419;BME280;45224;50.904;6.038;2023-09-18T05:38:29;98616.22;;;19.75;93.03
59419;BME280;45224;50.904;6.038;2023-09-18T05:40:00;98632.88;;;19.74;93.41
59419;BME280;45224;50.904;6.038;2023-09-18T05:41:31;98644.13;;;19.76;93.41
59419;BME280;45224;50.904;6.038;2023-09-18T05:43:01;98642.78;;;19.69;93.53
59419;BME280;45224;50.904;6.038;2023-09-18T05:44:32;98648.00;;;19.69;93.40
59419;BME280;45224;50.904;6.038;2023-09-18T05:46:03;98635.56;;;19.73;93.13
59419;BME280;45224;50.904;6.038;2023-09-18T05:47:34;98645.47;;;19.67;93.37
59419;BME280;45224;50.904;6.038;2023-09-18T05:49:08;98646.16;;;19.71;92.96
59419;BME280;45224;50.904;6.038;2023-09-18T05:50:38;98658.16;;;19.75;92.93
59419;BME280;45224;50.904;6.038;2023-09-18T05:52:11;98655.41;;;19.78;92.48
59419;BME280;45224;50.904;6.038;2023-09-18T05:53:41;98659.69;;;19.79;92.29
59419;BME280;45224;50.904;6.038;2023-09-18T05:55:13;98662.53;;;19.75;92.75
59419;BME280;45224;50.904;6.038;2023-09-18T05:56:44;98660.00;;;19.73;93.18
59419;BME280;45224;50.904;6.038;2023-09-18T05:58:14;98648.84;;;19.69;93.42
59419;BME280;45224;50.904;6.038;2023-09-18T05:59:45;98661.22;;;19.67;93.27
59419;BME280;45224;50.904;6.038;2023-09-18T06:01:15;98658.66;;;19.66;93.65
59419;BME280;45224;50.904;6.038;2023-09-18T06:02:46;98656.97;;;19.65;93.61
59419;BME280;45224;50.904;6.038;2023-09-18T06:04:16;98671.03;;;19.64;93.78
59419;BME280;45224;50.904;6.038;2023-09-18T06:05:47;98663.28;;;19.78;92.26
59419;BME280;45224;50.904;6.038;2023-09-18T06:07:17;98680.00;;;19.76;92.78
59419;BME280;45224;50.904;6.038;2023-09-18T06:08:48;98668.31;;;19.65;92.99
59419;BME280;45224;50.904;6.038;2023-09-18T06:10:18;98666.53;;;19.66;92.99
59419;BME280;45224;50.904;6.038;2023-09-18T06:11:49;98675.72;;;19.73;92.47
59419;BME280;45224;50.904;6.038;2023-09-18T06:13:19;98682.75;;;19.73;92.63
59419;BME280;45224;50.904;6.038;2023-09-18T06:14:50;98690.97;;;19.66;92.81
59419;BME280;45224;50.904;6.038;2023-09-18T06:16:20;98691.03;;;19.65;92.70
59419;BME280;45224;50.904;6.038;2023-09-18T06:17:51;98685.22;;;19.60;93.10
59419;BME280;45224;50.904;6.038;2023-09-18T06:19:21;98689.00;;;19.70;93.06
59419;BME280;45224;50.904;6.038;2023-09-18T06:20:52;98686.59;;;19.67;92.45
59419;BME280;45224;50.904;6.038;2023-09-18T06:22:22;98709.06;;;19.71;92.17
59419;BME280;45224;50.904;6.038;2023-09-18T06:23:53;98699.50;;;19.70;92.44
59419;BME280;45224;50.904;6.038;2023-09-18T06:25:24;98707.56;;;19.67;92.43
59419;BME280;45224;50.904;6.038;2023-09-18T06:26:54;98710.19;;;19.67;92.47
59419;BME280;45224;50.904;6.038;2023-09-18T06:28:25;98713.13;;;19.61;93.01
59419;BME280;45224;50.904;6.038;2023-09-18T06:29:55;98709.31;;;19.66;92.48
59419;BME280;45224;50.904;6.038;2023-09-18T06:31:26;98708.72;;;19.61;92.77
59419;BME280;45224;50.904;6.038;2023-09-18T06:32:56;98719.72;;;19.68;92.02
59419;BME280;45224;50.904;6.038;2023-09-18T06:34:27;98720.97;;;19.78;91.42
59419;BME280;45224;50.904;6.038;2023-09-18T06:35:58;98712.91;;;19.81;91.16
59419;BME280;45224;50.904;6.038;2023-09-18T06:37:29;98720.19;;;19.76;91.47
59419;BME280;45224;50.904;6.038;2023-09-18T06:39:00;98728.06;;;19.76;91.52
59419;BME280;45224;50.904;6.038;2023-09-18T06:40:30;98731.75;;;19.72;91.38
59419;BME280;45224;50.904;6.038;2023-09-18T06:42:01;98719.41;;;19.74;91.17
59419;BME280;45224;50.904;6.038;2023-09-18T06:43:31;98729.75;;;19.77;91.04
59419;BME280;45224;50.904;6.038;2023-09-18T06:45:02;98721.63;;;19.82;90.83
59419;BME280;45224;50.904;6.038;2023-09-18T06:46:36;98722.47;;;19.82;91.04
59419;BME280;45224;50.904;6.038;2023-09-18T06:48:07;98735.00;;;19.77;91.22
59419;BME280;45224;50.904;6.038;2023-09-18T06:49:37;98730.34;;;19.82;90.74
59419;BME280;45224;50.904;6.038;2023-09-18T06:51:08;98727.25;;;19.74;90.63
59419;BME280;45224;50.904;6.038;2023-09-18T06:52:38;98729.41;;;19.83;90.22
59419;BME280;45224;50.904;6.038;2023-09-18T06:54:09;98730.00;;;19.88;90.06
59419;BME280;45224;50.904;6.038;2023-09-18T06:55:39;98733.22;;;19.94;89.49
59419;BME280;45224;50.904;6.038;2023-09-18T06:57:10;98737.72;;;19.92;89.98
59419;BME280;45224;50.904;6.038;2023-09-18T06:58:40;98744.38;;;19.81;90.18
59419;BME280;45224;50.904;6.038;2023-09-18T07:00:11;98742.38;;;19.86;90.17
59419;BME280;45224;50.904;6.038;2023-09-18T07:01:42;98741.50;;;19.86;89.88
59419;BME280;45224;50.904;6.038;2023-09-18T07:03:12;98742.28;;;19.88;89.92
59419;BME280;45224;50.904;6.038;2023-09-18T07:04:43;98742.78;;;19.95;89.55
59419;BME280;45224;50.904;6.038;2023-09-18T07:06:17;98744.03;;;19.87;89.81
59419;BME280;45224;50.904;6.038;2023-09-18T07:07:50;98751.66;;;19.92;89.14
59419;BME280;45224;50.904;6.038;2023-09-18T07:09:20;98756.25;;;19.88;89.70
59419;BME280;45224;50.904;6.038;2023-09-18T07:10:53;98764.09;;;19.88;90.06
59419;BME280;45224;50.904;6.038;2023-09-18T07:12:23;98770.59;;;19.81;90.14
59419;BME280;45224;50.904;6.038;2023-09-18T07:13:54;98753.53;;;19.90;89.60
59419;BME280;45224;50.904;6.038;2023-09-18T07:15:24;98750.47;;;19.82;89.25
59419;BME280;45224;50.904;6.038;2023-09-18T07:16:55;98750.25;;;19.86;89.46
59419;BME280;45224;50.904;6.038;2023-09-18T07:18:25;98764.69;;;19.94;88.99
59419;BME280;45224;50.904;6.038;2023-09-18T07:19:56;98778.56;;;19.96;88.89
59419;BME280;45224;50.904;6.038;2023-09-18T07:21:26;98758.94;;;20.03;88.68
59419;BME280;45224;50.904;6.038;2023-09-18T07:22:59;98736.59;;;19.96;88.49
59419;BME280;45224;50.904;6.038;2023-09-18T07:24:29;98733.81;;;19.99;88.53
59419;BME280;45224;50.904;6.038;2023-09-18T07:25:59;98750.13;;;20.04;88.34
59419;BME280;45224;50.904;6.038;2023-09-18T07:27:30;98756.31;;;20.03;88.13
59419;BME280;45224;50.904;6.038;2023-09-18T07:29:00;98754.78;;;19.99;88.20
59419;BME280;45224;50.904;6.038;2023-09-18T07:30:33;98751.25;;;20.00;88.20
59419;BME280;45224;50.904;6.038;2023-09-18T07:32:03;98773.41;;;20.10;87.85
59419;BME280;45224;50.904;6.038;2023-09-18T07:33:37;98770.94;;;20.07;87.84
59419;BME280;45224;50.904;6.038;2023-09-18T07:35:08;98773.41;;;20.10;87.53
59419;BME280;45224;50.904;6.038;2023-09-18T07:36:38;98771.56;;;20.12;87.50
59419;BME280;45224;50.904;6.038;2023-09-18T07:38:09;98768.84;;;20.14;87.36
59419;BME280;45224;50.904;6.038;2023-09-18T07:39:39;98776.28;;;20.21;86.96
59419;BME280;45224;50.904;6.038;2023-09-18T07:41:13;98771.13;;;20.20;86.60
59419;BME280;45224;50.904;6.038;2023-09-18T07:42:45;98768.16;;;20.10;87.37
59419;BME280;45224;50.904;6.038;2023-09-18T07:44:19;98766.13;;;20.15;86.63
59419;BME280;45224;50.904;6.038;2023-09-18T07:45:53;98764.63;;;20.11;86.95
59419;BME280;45224;50.904;6.038;2023-09-18T07:47:24;98772.25;;;20.16;86.65
59419;BME280;45224;50.904;6.038;2023-09-18T07:48:55;98768.56;;;20.18;86.31
59419;BME280;45224;50.904;6.038;2023-09-18T07:50:25;98774.78;;;20.17;86.51
59419;BME280;45224;50.904;6.038;2023-09-18T07:51:57;98770.28;;;20.19;86.25
59419;BME280;45224;50.904;6.038;2023-09-18T07:53:27;98768.56;;;20.18;86.54
59419;BME280;45224;50.904;6.038;2023-09-18T07:54:58;98766.56;;;20.23;86.03
59419;BME280;45224;50.904;6.038;2023-09-18T07:56:29;98771.81;;;20.23;85.61
59419;BME280;45224;50.904;6.038;2023-09-18T07:58:04;98770.88;;;20.24;85.24
59419;BME280;45224;50.904;6.038;2023-09-18T07:59:37;98781.28;;;20.26;85.58
59419;BME280;45224;50.904;6.038;2023-09-18T08:01:09;98786.19;;;20.32;84.94
59419;BME280;45224;50.904;6.038;2023-09-18T08:02:40;98792.84;;;20.38;85.23
59419;BME280;45224;50.904;6.038;2023-09-18T08:04:10;98804.88;;;20.42;84.55